Time;durP1;ratioP1;P1;durP2;ratioP2;P2;SDS_P1;SDS_P2;PMS_P1;PMS_P2;Temp;Humidity;BMP_temperature;BMP_pressure;BME280_temperature;BME280_humidity;BME280_pressure;Samples;Min_cycle;Max_cycle;Signal;HPM_P1;HPM_P2
2023/07/05 00:03:41;;;;;;;6.50;5.23;;;;;;;;;;10477673;28;20037;-80
2023/07/05 00:08:41;;;;;;;10.23;6.00;;;;;;;;;;10474403;28;20029;-78
2023/07/05 00:13:45;;;;;;;6.70;5.40;;;;;;;;;;10467258;28;20325;-79
2023/07/05 00:18:47;;;;;;;6.72;5.75;;;;;;;;;;10478375;28;20286;-79
2023/07/05 00:23:49;;;;;;;7.80;5.32;;;;;;;;;;10473071;28;20121;-81
2023/07/05 00:28:50;;;;;;;7.40;5.33;;;;;;;;;;10461573;28;20040;-80
2023/07/05 00:33:52;;;;;;;7.75;5.57;;;;;;;;;;10470891;28;20052;-80
2023/07/05 00:38:53;;;;;;;6.97;5.28;;;;;;;;;;10477383;28;20105;-81
2023/07/05 00:43:53;;;;;;;7.70;5.68;;;;;;;;;;10463552;28;20100;-79
2023/07/05 00:48:59;;;;;;;7.32;5.70;;;;;;;;;;10468312;28;20032;-81
2023/07/05 00:54:01;;;;;;;8.40;5.47;;;;;;;;;;10469244;28;20115;-85
2023/07/05 00:59:02;;;;;;;7.38;5.47;;;;;;;;;;10476066;28;20071;-81
2023/07/05 01:04:04;;;;;;;9.05;5.68;;;;;;;;;;10465993;28;20041;-84
2023/07/05 01:09:06;;;;;;;6.88;5.82;;;;;;;;;;10467638;28;20395;-81
2023/07/05 01:14:19;;;;;;;6.40;5.70;;;;;;;;;;10449954;28;20044;-82
2023/07/05 01:19:32;;;;;;;8.35;5.95;;;;;;;;;;10469515;28;20174;-83
2023/07/05 01:25:11;;;;;;;7.65;5.70;;;;;;;;;;10466752;28;20105;-82
2023/07/05 01:30:20;;;;;;;7.97;5.65;;;;;;;;;;10275249;28;20142;-86
2023/07/05 01:35:23;;;;;;;7.05;4.90;;;;;;;;;;10393449;28;20064;-87
2023/07/05 01:40:50;;;;;;;8.38;5.47;;;;;;;;;;10436439;28;20809;-82
2023/07/05 01:45:50;;;;;;;8.50;6.03;;;;;;;;;;10428881;28;20183;-86
2023/07/05 01:51:01;;;;;;;7.63;6.30;;;;;;;;;;10435979;28;20062;-84
2023/07/05 01:56:07;;;;;;;8.07;6.00;;;;;;;;;;10408241;28;20754;-88
2023/07/05 02:01:09;;;;;;;7.72;5.95;;;;;;;;;;10456821;28;20409;-83
2023/07/05 02:06:10;;;;;;;7.63;6.20;;;;;;;;;;10439943;28;20029;-85
2023/07/05 02:11:11;;;;;;;10.37;7.10;;;;;;;;;;10458165;28;20025;-83
2023/07/05 02:16:11;;;;;;;10.30;6.83;;;;;;;;;;10462696;28;20052;-82
2023/07/05 02:21:13;;;;;;;9.20;6.32;;;;;;;;;;10482102;28;20292;-80
2023/07/05 02:26:14;;;;;;;9.45;6.65;;;;;;;;;;10493630;28;20067;-79
2023/07/05 02:31:15;;;;;;;8.85;6.38;;;;;;;;;;10490976;28;20484;-81
2023/07/05 02:36:15;;;;;;;8.18;6.32;;;;;;;;;;10467809;28;20159;-81
2023/07/05 02:41:16;;;;;;;8.10;6.10;;;;;;;;;;10471235;28;20047;-83
2023/07/05 02:46:17;;;;;;;9.73;6.77;;;;;;;;;;10483512;28;20490;-84
2023/07/05 02:51:17;;;;;;;8.55;6.68;;;;;;;;;;10474187;28;20439;-80
2023/07/05 02:56:18;;;;;;;10.27;7.30;;;;;;;;;;10470552;28;20060;-84
2023/07/05 03:01:18;;;;;;;11.07;7.07;;;;;;;;;;10436204;28;21092;-82
2023/07/05 03:06:18;;;;;;;8.87;6.93;;;;;;;;;;10452911;28;20548;-86
2023/07/05 03:11:19;;;;;;;8.40;6.25;;;;;;;;;;10467855;28;20662;-87
2023/07/05 03:16:20;;;;;;;11.18;6.80;;;;;;;;;;10451504;28;20048;-84
2023/07/05 03:21:20;;;;;;;9.63;7.03;;;;;;;;;;10468457;28;20040;-81
2023/07/05 03:26:21;;;;;;;11.50;6.65;;;;;;;;;;10446131;28;20086;-78
2023/07/05 03:31:23;;;;;;;9.30;6.40;;;;;;;;;;10465055;28;20036;-79
2023/07/05 03:36:23;;;;;;;10.40;7.03;;;;;;;;;;10465867;28;20036;-83
2023/07/05 03:41:24;;;;;;;10.85;6.68;;;;;;;;;;10466260;28;20032;-82
2023/07/05 03:46:24;;;;;;;8.40;6.63;;;;;;;;;;10443025;28;20033;-79
2023/07/05 03:51:25;;;;;;;9.90;6.22;;;;;;;;;;10463263;28;20843;-79
2023/07/05 03:56:27;;;;;;;9.02;5.95;;;;;;;;;;10462478;28;20040;-80
2023/07/05 04:01:28;;;;;;;8.25;5.75;;;;;;;;;;10442313;28;20040;-79
2023/07/05 04:06:30;;;;;;;8.35;6.00;;;;;;;;;;10458516;28;20605;-83
2023/07/05 04:11:30;;;;;;;8.68;5.90;;;;;;;;;;10464044;28;20051;-80
2023/07/05 04:16:31;;;;;;;8.88;6.05;;;;;;;;;;10461053;28;20044;-78
2023/07/05 04:21:31;;;;;;;8.47;6.07;;;;;;;;;;10465331;28;20029;-81
2023/07/05 04:26:36;;;;;;;8.85;6.07;;;;;;;;;;10446269;28;20381;-82
2023/07/05 04:31:37;;;;;;;8.32;6.43;;;;;;;;;;10420841;28;20136;-77
2023/07/05 04:36:38;;;;;;;7.20;5.90;;;;;;;;;;10430101;28;20733;-81
2023/07/05 04:41:38;;;;;;;8.50;5.80;;;;;;;;;;10431799;28;20287;-81
2023/07/05 04:46:39;;;;;;;10.07;6.07;;;;;;;;;;10412060;28;20063;-80
2023/07/05 04:51:40;;;;;;;10.77;6.90;;;;;;;;;;10430694;28;20029;-79
2023/07/05 04:56:41;;;;;;;10.95;7.25;;;;;;;;;;10438535;28;20472;-76
2023/07/05 05:01:41;;;;;;;9.40;6.67;;;;;;;;;;10431236;28;20033;-77
2023/07/05 05:06:41;;;;;;;9.30;6.37;;;;;;;;;;10427100;28;20762;-80
2023/07/05 05:11:42;;;;;;;12.50;7.88;;;;;;;;;;10411342;28;20048;-81
2023/07/05 05:16:42;;;;;;;12.60;7.80;;;;;;;;;;10432447;28;20033;-82
2023/07/05 05:21:42;;;;;;;11.30;8.00;;;;;;;;;;10412954;28;20570;-80
2023/07/05 05:26:43;;;;;;;10.53;8.00;;;;;;;;;;10428507;28;20101;-79
2023/07/05 05:31:43;;;;;;;11.50;8.52;;;;;;;;;;10471872;28;20098;-77
2023/07/05 05:36:43;;;;;;;11.00;7.93;;;;;;;;;;10468382;28;20157;-76
2023/07/05 05:41:44;;;;;;;11.27;8.87;;;;;;;;;;10467774;28;20040;-75
2023/07/05 05:46:44;;;;;;;12.13;8.43;;;;;;;;;;10464300;28;20390;-74
2023/07/05 05:51:44;;;;;;;10.60;8.07;;;;;;;;;;10468198;28;20040;-74
2023/07/05 05:56:45;;;;;;;12.53;7.97;;;;;;;;;;10465908;28;20119;-75
2023/07/05 06:01:45;;;;;;;10.60;7.73;;;;;;;;;;10469914;28;20306;-75
2023/07/05 06:06:46;;;;;;;9.18;7.03;;;;;;;;;;10464059;28;20123;-76
2023/07/05 06:11:46;;;;;;;11.77;7.18;;;;;;;;;;10429751;28;20055;-75
2023/07/05 06:16:46;;;;;;;10.60;7.33;;;;;;;;;;10463600;28;20035;-75
2023/07/05 06:21:47;;;;;;;10.10;6.90;;;;;;;;;;10463433;28;20804;-75
2023/07/05 06:26:47;;;;;;;8.40;6.60;;;;;;;;;;10463975;28;21284;-76
2023/07/05 06:31:47;;;;;;;11.20;6.80;;;;;;;;;;10442386;28;20068;-77
2023/07/05 06:36:48;;;;;;;10.10;7.27;;;;;;;;;;10463079;28;20044;-76
2023/07/05 06:41:48;;;;;;;12.70;7.53;;;;;;;;;;10464167;28;20045;-76
2023/07/05 06:46:48;;;;;;;9.13;6.10;;;;;;;;;;10464678;28;20040;-78
2023/07/05 06:51:49;;;;;;;13.10;7.90;;;;;;;;;;10460258;28;20052;-77
2023/07/05 06:56:49;;;;;;;12.07;7.13;;;;;;;;;;10460829;28;20364;-77
2023/07/05 07:01:49;;;;;;;10.03;6.90;;;;;;;;;;10463092;28;20040;-76
2023/07/05 07:06:50;;;;;;;9.03;6.90;;;;;;;;;;10463789;28;20406;-77
2023/07/05 07:11:50;;;;;;;8.00;6.17;;;;;;;;;;10455605;28;20060;-74
2023/07/05 07:16:50;;;;;;;9.23;6.00;;;;;;;;;;10462852;28;20291;-76
2023/07/05 07:21:51;;;;;;;6.57;4.80;;;;;;;;;;10462483;28;20710;-75
2023/07/05 07:26:51;;;;;;;7.85;5.03;;;;;;;;;;10447145;28;20045;-76
2023/07/05 07:31:52;;;;;;;5.95;4.70;;;;;;;;;;10427831;28;20040;-76
2023/07/05 07:36:53;;;;;;;5.07;3.55;;;;;;;;;;10427027;28;20079;-75
2023/07/05 07:41:53;;;;;;;6.27;3.50;;;;;;;;;;10431177;28;20182;-75
2023/07/05 07:46:53;;;;;;;5.43;2.97;;;;;;;;;;10424324;28;20823;-77
2023/07/05 07:51:55;;;;;;;5.20;3.30;;;;;;;;;;10432705;28;20132;-76
2023/07/05 07:56:56;;;;;;;5.70;3.63;;;;;;;;;;10430771;28;20354;-78
2023/07/05 08:01:56;;;;;;;4.05;3.25;;;;;;;;;;10423400;28;20041;-75
2023/07/05 08:06:56;;;;;;;9.17;4.60;;;;;;;;;;10429452;28;20033;-74
2023/07/05 08:11:57;;;;;;;7.67;4.60;;;;;;;;;;10435079;28;20052;-73
2023/07/05 08:16:57;;;;;;;5.65;4.55;;;;;;;;;;10432156;28;20035;-76
2023/07/05 08:21:58;;;;;;;8.30;4.97;;;;;;;;;;10432943;28;20028;-75
2023/07/05 08:26:59;;;;;;;5.53;2.83;;;;;;;;;;10430663;28;20520;-76
2023/07/05 08:31:59;;;;;;;8.02;2.85;;;;;;;;;;10429994;28;20041;-75
2023/07/05 08:37:01;;;;;;;5.57;2.50;;;;;;;;;;10429523;28;20041;-75
2023/07/05 08:42:01;;;;;;;4.72;2.15;;;;;;;;;;10431170;28;20025;-76
2023/07/05 08:47:17;;;;;;;5.15;2.47;;;;;;;;;;10427579;28;20557;-77
2023/07/05 08:52:22;;;;;;;4.78;1.77;;;;;;;;;;10432162;28;20041;-76
2023/07/05 08:57:25;;;;;;;3.72;2.05;;;;;;;;;;10411029;28;20045;-79
2023/07/05 09:02:27;;;;;;;4.72;3.28;;;;;;;;;;10416122;28;20033;-76
2023/07/05 09:07:30;;;;;;;5.78;2.03;;;;;;;;;;10438645;28;20497;-76
2023/07/05 09:12:36;;;;;;;4.85;2.05;;;;;;;;;;10418967;28;20065;-76
2023/07/05 09:17:52;;;;;;;3.10;1.90;;;;;;;;;;10431159;28;20045;-77
2023/07/05 09:22:56;;;;;;;4.55;2.13;;;;;;;;;;10427740;28;20674;-76
2023/07/05 09:28:02;;;;;;;4.07;2.17;;;;;;;;;;10459002;28;20037;-75
2023/07/05 09:33:10;;;;;;;4.95;2.47;;;;;;;;;;10451986;28;20052;-76
2023/07/05 09:38:12;;;;;;;4.43;2.63;;;;;;;;;;10465182;28;20039;-78
2023/07/05 09:43:15;;;;;;;3.53;2.63;;;;;;;;;;10447973;28;20072;-77
2023/07/05 09:48:17;;;;;;;4.53;2.72;;;;;;;;;;10446308;28;20559;-76
2023/07/05 09:53:20;;;;;;;3.00;2.40;;;;;;;;;;10464201;28;20029;-78
2023/07/05 09:58:24;;;;;;;3.88;3.00;;;;;;;;;;10466822;28;20413;-76
2023/07/05 10:03:25;;;;;;;4.78;3.47;;;;;;;;;;10447841;28;20119;-76
2023/07/05 10:08:25;;;;;;;4.38;3.50;;;;;;;;;;10465897;28;20040;-77
2023/07/05 10:13:26;;;;;;;5.80;3.67;;;;;;;;;;10442491;28;20053;-77
2023/07/05 10:18:31;;;;;;;5.10;3.92;;;;;;;;;;10465175;28;20044;-76
2023/07/05 10:23:34;;;;;;;6.72;5.50;;;;;;;;;;10462284;28;21261;-77
2023/07/05 10:28:37;;;;;;;5.10;3.67;;;;;;;;;;10466450;28;20150;-78
2023/07/05 10:33:41;;;;;;;;;;;;;;;;;;10464420;28;20084;-77
2023/07/05 10:38:41;;;;;;;4.05;3.65;;;;;;;;;;10463830;28;20646;-77
2023/07/05 10:43:46;;;;;;;3.53;3.03;;;;;;;;;;10465105;28;20053;-76
2023/07/05 10:48:48;;;;;;;3.58;3.25;;;;;;;;;;10464909;28;20063;-77
2023/07/05 10:53:48;;;;;;;;;;;;;;;;;;10456155;28;20053;-75
2023/07/05 10:59:00;;;;;;;4.78;3.33;;;;;;;;;;10437391;28;19966;-77
2023/07/05 11:04:05;;;;;;;4.68;3.53;;;;;;;;;;10462160;28;20040;-77
2023/07/05 11:09:07;;;;;;;4.85;4.00;;;;;;;;;;10443061;28;20039;-76
2023/07/05 11:14:12;;;;;;;4.20;3.57;;;;;;;;;;10472440;28;20048;-78
2023/07/05 11:19:17;;;;;;;7.57;3.53;;;;;;;;;;10471274;28;20094;-76
2023/07/05 11:24:36;;;;;;;4.53;3.55;;;;;;;;;;10465798;28;20086;-76
2023/07/05 11:29:42;;;;;;;5.75;4.20;;;;;;;;;;10460540;28;21021;-76
2023/07/05 11:34:44;;;;;;;5.30;3.25;;;;;;;;;;10442240;28;20143;-77
2023/07/05 11:39:51;;;;;;;4.43;3.20;;;;;;;;;;10460664;28;20636;-80
2023/07/05 11:45:03;;;;;;;4.47;3.42;;;;;;;;;;10463690;28;20040;-80
2023/07/05 11:50:13;;;;;;;4.43;3.10;;;;;;;;;;10462505;28;20132;-78
2023/07/05 11:55:20;;;;;;;4.63;2.90;;;;;;;;;;10469550;28;20378;-79
2023/07/05 12:00:27;;;;;;;5.07;3.22;;;;;;;;;;10464713;28;20120;-80
2023/07/05 12:05:28;;;;;;;4.32;3.17;;;;;;;;;;10478484;28;20041;-78
2023/07/05 12:10:31;;;;;;;4.40;3.42;;;;;;;;;;10475213;28;20045;-77
2023/07/05 12:15:36;;;;;;;5.32;3.63;;;;;;;;;;10472596;28;20492;-79
2023/07/05 12:20:38;;;;;;;4.60;3.13;;;;;;;;;;10463481;28;20155;-79
2023/07/05 12:25:38;;;;;;;4.22;3.13;;;;;;;;;;10475400;28;20145;-79
2023/07/05 12:30:40;;;;;;;4.00;3.22;;;;;;;;;;10498645;28;21134;-77
2023/07/05 12:35:41;;;;;;;3.90;2.63;;;;;;;;;;10482824;28;20084;-80
2023/07/05 12:40:41;;;;;;;4.37;2.93;;;;;;;;;;10461122;28;20037;-77
2023/07/05 12:45:43;;;;;;;4.38;2.90;;;;;;;;;;10440384;28;20044;-78
2023/07/05 12:50:44;;;;;;;6.03;3.25;;;;;;;;;;10456824;28;20036;-78
2023/07/05 12:55:51;;;;;;;3.60;2.70;;;;;;;;;;10462630;28;20052;-78
2023/07/05 13:00:53;;;;;;;4.32;2.92;;;;;;;;;;10466265;28;20048;-78
2023/07/05 13:05:54;;;;;;;3.75;2.72;;;;;;;;;;10469152;28;20029;-77
2023/07/05 13:10:54;;;;;;;3.40;3.00;;;;;;;;;;10471427;28;20067;-76
2023/07/05 13:15:56;;;;;;;3.78;2.80;;;;;;;;;;10466561;28;20048;-76
2023/07/05 13:21:10;;;;;;;4.40;2.65;;;;;;;;;;10467095;28;20044;-77
2023/07/05 13:26:26;;;;;;;4.20;3.13;;;;;;;;;;10465366;28;20043;-77
2023/07/05 13:31:27;;;;;;;4.00;3.03;;;;;;;;;;10464637;28;20102;-77
2023/07/05 13:36:27;;;;;;;4.03;3.03;;;;;;;;;;10465599;28;20105;-78
2023/07/05 13:41:30;;;;;;;4.67;3.07;;;;;;;;;;10466246;28;20491;-78
2023/07/05 13:46:30;;;;;;;3.55;2.83;;;;;;;;;;10446422;28;20302;-79
2023/07/05 13:51:32;;;;;;;4.57;2.90;;;;;;;;;;10466575;28;20028;-79
2023/07/05 13:56:33;;;;;;;3.88;2.70;;;;;;;;;;10469013;28;20048;-77
2023/07/05 14:01:33;;;;;;;3.90;2.60;;;;;;;;;;10467433;28;20067;-78
2023/07/05 14:06:34;;;;;;;5.05;2.95;;;;;;;;;;10463997;28;20890;-82
2023/07/05 14:11:38;;;;;;;3.50;2.97;;;;;;;;;;10468967;28;20098;-77
2023/07/05 14:16:39;;;;;;;4.30;2.55;;;;;;;;;;10459300;28;20036;-80
2023/07/05 14:21:40;;;;;;;5.75;2.60;;;;;;;;;;10462211;28;20043;-78
2023/07/05 14:26:41;;;;;;;3.58;2.83;;;;;;;;;;10447597;28;20381;-77
2023/07/05 14:31:43;;;;;;;3.20;2.63;;;;;;;;;;10409918;28;20504;-77
2023/07/05 14:36:44;;;;;;;3.83;2.80;;;;;;;;;;10405628;28;20056;-78
2023/07/05 14:41:44;;;;;;;4.45;2.55;;;;;;;;;;10422001;28;20048;-78
2023/07/05 14:46:46;;;;;;;3.25;2.20;;;;;;;;;;10416383;28;20472;-81
2023/07/05 14:51:47;;;;;;;3.57;2.60;;;;;;;;;;10417203;28;20052;-80
2023/07/05 14:56:47;;;;;;;5.53;2.72;;;;;;;;;;10403326;28;20127;-78
2023/07/05 15:01:48;;;;;;;5.97;4.63;;;;;;;;;;10415388;28;20052;-80
2023/07/05 15:06:49;;;;;;;3.40;2.03;;;;;;;;;;10424884;28;21006;-76
2023/07/05 15:11:49;;;;;;;3.15;2.38;;;;;;;;;;10423902;28;20591;-76
2023/07/05 15:16:50;;;;;;;3.65;2.35;;;;;;;;;;10420601;28;20044;-77
2023/07/05 15:21:50;;;;;;;3.50;2.30;;;;;;;;;;10422599;28;20094;-76
2023/07/05 15:26:51;;;;;;;4.32;2.53;;;;;;;;;;10422066;28;20353;-79
2023/07/05 15:31:52;;;;;;;3.47;2.60;;;;;;;;;;10423303;28;20472;-80
2023/07/05 15:36:52;;;;;;;3.33;2.42;;;;;;;;;;10432644;28;20086;-78
2023/07/05 15:41:53;;;;;;;5.90;2.60;;;;;;;;;;10454990;28;20329;-79
2023/07/05 15:46:53;;;;;;;2.60;2.30;;;;;;;;;;10456213;28;20127;-79
2023/07/05 15:51:53;;;;;;;2.93;2.40;;;;;;;;;;10430145;28;20067;-79
2023/07/05 15:56:54;;;;;;;2.37;2.10;;;;;;;;;;10434634;28;20282;-78
2023/07/05 16:01:55;;;;;;;4.13;2.30;;;;;;;;;;10431023;28;20029;-84
2023/07/05 16:06:56;;;;;;;3.53;2.20;;;;;;;;;;10432929;28;20033;-84
2023/07/05 16:11:57;;;;;;;2.90;2.40;;;;;;;;;;10431157;28;20136;-83
2023/07/05 16:16:58;;;;;;;4.30;2.20;;;;;;;;;;10425157;28;20041;-81
2023/07/05 16:21:58;;;;;;;2.90;2.15;;;;;;;;;;10428143;28;20348;-82
2023/07/05 16:26:59;;;;;;;2.83;2.30;;;;;;;;;;10447172;28;20040;-84
2023/07/05 16:31:59;;;;;;;2.93;2.23;;;;;;;;;;10462260;28;20110;-85
2023/07/05 16:37:00;;;;;;;3.27;2.53;;;;;;;;;;10485677;28;20484;-84
2023/07/05 16:42:01;;;;;;;3.03;2.28;;;;;;;;;;10480334;28;20096;-83
2023/07/05 16:47:01;;;;;;;2.83;2.25;;;;;;;;;;10436098;28;20033;-84
2023/07/05 16:52:02;;;;;;;4.80;2.47;;;;;;;;;;10472889;28;20495;-86
2023/07/05 16:57:04;;;;;;;4.10;2.50;;;;;;;;;;10477287;28;20041;-81
2023/07/05 17:02:04;;;;;;;3.72;2.75;;;;;;;;;;10477781;28;20343;-82
2023/07/05 17:07:09;;;;;;;4.32;2.97;;;;;;;;;;10473943;28;20051;-76
2023/07/05 17:12:11;;;;;;;5.10;3.00;;;;;;;;;;10468788;28;20690;-77
2023/07/05 17:17:13;;;;;;;;;;;;;;;;;;10473567;28;20120;-78
2023/07/05 17:22:14;;;;;;;3.90;3.25;;;;;;;;;;10465967;28;19955;-79
2023/07/05 17:27:14;;;;;;;4.73;3.47;;;;;;;;;;10470408;28;20036;-79
2023/07/05 17:32:14;;;;;;;3.03;2.57;;;;;;;;;;10446854;28;20307;-78
2023/07/05 17:37:15;;;;;;;3.17;2.72;;;;;;;;;;10447734;28;20794;-80
2023/07/05 17:42:15;;;;;;;3.73;2.83;;;;;;;;;;10466227;28;20075;-76
2023/07/05 17:47:16;;;;;;;3.67;2.30;;;;;;;;;;10464742;28;20053;-77
2023/07/05 17:52:16;;;;;;;3.60;2.40;;;;;;;;;;10466835;28;20306;-77
2023/07/05 17:57:17;;;;;;;3.55;2.53;;;;;;;;;;10448956;28;20040;-78
2023/07/05 18:02:19;;;;;;;3.50;2.42;;;;;;;;;;10468957;28;20036;-78
2023/07/05 18:07:19;;;;;;;4.38;2.80;;;;;;;;;;10452038;28;20093;-80
2023/07/05 18:12:20;;;;;;;6.53;2.80;;;;;;;;;;10468117;28;20560;-79
2023/07/05 18:17:20;;;;;;;4.32;2.58;;;;;;;;;;10463419;28;20040;-76
2023/07/05 18:22:22;;;;;;;3.05;2.35;;;;;;;;;;10465132;28;20044;-77
2023/07/05 18:27:23;;;;;;;3.25;2.17;;;;;;;;;;10443275;28;20060;-78
2023/07/05 18:32:24;;;;;;;4.95;2.70;;;;;;;;;;10439731;28;20045;-77
2023/07/05 18:37:24;;;;;;;4.67;2.90;;;;;;;;;;10455639;28;20126;-78
2023/07/05 18:42:25;;;;;;;7.17;4.50;;;;;;;;;;10444897;28;20396;-79
2023/07/05 18:47:25;;;;;;;6.03;4.28;;;;;;;;;;10425356;28;20159;-78
2023/07/05 18:52:26;;;;;;;4.47;2.63;;;;;;;;;;10433398;28;20049;-77
2023/07/05 18:57:26;;;;;;;3.47;2.43;;;;;;;;;;10404565;28;20094;-76
2023/07/05 19:02:26;;;;;;;4.17;2.50;;;;;;;;;;10422603;28;20038;-77
2023/07/05 19:07:27;;;;;;;3.08;2.35;;;;;;;;;;10420974;28;20029;-77
2023/07/05 19:12:29;;;;;;;3.20;2.50;;;;;;;;;;10404547;28;20817;-77
2023/07/05 19:17:29;;;;;;;2.40;2.10;;;;;;;;;;10422239;28;20036;-78
2023/07/05 19:22:35;;;;;;;3.50;2.40;;;;;;;;;;10420110;28;20037;-75
2023/07/05 19:27:35;;;;;;;4.13;2.50;;;;;;;;;;10447023;28;20040;-76
2023/07/05 19:32:35;;;;;;;3.63;2.40;;;;;;;;;;10464400;28;20665;-78
2023/07/05 19:37:36;;;;;;;4.18;2.25;;;;;;;;;;10448790;28;20291;-78
2023/07/05 19:42:36;;;;;;;2.67;2.28;;;;;;;;;;10446111;28;20526;-76
2023/07/05 19:47:39;;;;;;;7.85;5.60;;;;;;;;;;10464271;28;20041;-76
2023/07/05 19:52:40;;;;;;;4.40;3.25;;;;;;;;;;10443862;28;20049;-75
2023/07/05 19:57:46;;;;;;;3.08;2.70;;;;;;;;;;10459868;28;20734;-77
2023/07/05 20:02:48;;;;;;;3.97;2.72;;;;;;;;;;10464533;28;21253;-78
2023/07/05 20:07:49;;;;;;;4.60;3.33;;;;;;;;;;10461636;28;20044;-76
2023/07/05 20:12:50;;;;;;;9.93;5.88;;;;;;;;;;10441995;28;20041;-76
2023/07/05 20:17:51;;;;;;;5.68;4.32;;;;;;;;;;10428096;28;20095;-77
2023/07/05 20:22:51;;;;;;;5.05;3.05;;;;;;;;;;10461763;28;21321;-75
2023/07/05 20:27:52;;;;;;;3.83;2.90;;;;;;;;;;10435652;28;20060;-74
2023/07/05 20:32:52;;;;;;;4.70;2.80;;;;;;;;;;10426159;28;20154;-74
2023/07/05 20:37:53;;;;;;;4.45;3.08;;;;;;;;;;10423525;28;20041;-75
2023/07/05 20:42:53;;;;;;;3.90;3.07;;;;;;;;;;10418074;28;20052;-76
2023/07/05 20:47:53;;;;;;;3.23;2.40;;;;;;;;;;10418713;28;20045;-78
2023/07/05 20:52:58;;;;;;;3.75;2.78;;;;;;;;;;10413199;28;20049;-78
2023/07/05 20:57:59;;;;;;;4.60;3.33;;;;;;;;;;10419774;28;20033;-75
2023/07/05 21:02:59;;;;;;;5.00;3.00;;;;;;;;;;10417250;28;20033;-76
2023/07/05 21:07:59;;;;;;;5.10;3.20;;;;;;;;;;10418425;28;20279;-75
2023/07/05 21:13:00;;;;;;;3.57;3.00;;;;;;;;;;10417696;28;20041;-77
2023/07/05 21:18:00;;;;;;;3.80;2.67;;;;;;;;;;10420966;28;20085;-77
2023/07/05 21:23:02;;;;;;;3.80;2.67;;;;;;;;;;10427472;28;20319;-74
2023/07/05 21:28:03;;;;;;;4.60;2.60;;;;;;;;;;10429574;28;20063;-78
2023/07/05 21:33:07;;;;;;;3.45;2.83;;;;;;;;;;10425984;28;20049;-76
2023/07/05 21:38:07;;;;;;;4.78;3.28;;;;;;;;;;10429411;28;20029;-73
2023/07/05 21:43:08;;;;;;;4.70;3.00;;;;;;;;;;10428488;28;20034;-74
2023/07/05 21:48:08;;;;;;;3.75;3.00;;;;;;;;;;10430297;28;20413;-74
2023/07/05 21:53:09;;;;;;;5.85;3.30;;;;;;;;;;10415986;28;20698;-75
2023/07/05 21:58:10;;;;;;;3.80;3.13;;;;;;;;;;10428665;28;20044;-76
2023/07/05 22:03:11;;;;;;;6.25;3.25;;;;;;;;;;10409659;28;20037;-74
2023/07/05 22:08:11;;;;;;;4.00;3.50;;;;;;;;;;10436888;28;20460;-74
2023/07/05 22:13:11;;;;;;;4.90;3.20;;;;;;;;;;10401435;28;20045;-74
2023/07/05 22:18:12;;;;;;;4.33;3.73;;;;;;;;;;10410560;28;20040;-74
2023/07/05 22:23:13;;;;;;;5.35;3.60;;;;;;;;;;10414172;28;20295;-78
2023/07/05 22:28:13;;;;;;;4.90;3.07;;;;;;;;;;10456126;28;20037;-76
2023/07/05 22:33:13;;;;;;;4.43;4.03;;;;;;;;;;10447168;28;20082;-77
2023/07/05 22:38:14;;;;;;;4.95;3.67;;;;;;;;;;10446741;28;20051;-78
2023/07/05 22:43:15;;;;;;;5.30;3.80;;;;;;;;;;10465471;28;20037;-75
2023/07/05 22:48:15;;;;;;;5.93;3.70;;;;;;;;;;10460967;28;20033;-77
2023/07/05 22:53:15;;;;;;;5.57;3.60;;;;;;;;;;10463917;28;20037;-75
2023/07/05 22:58:17;;;;;;;3.90;3.40;;;;;;;;;;10461380;28;20044;-77
2023/07/05 23:03:17;;;;;;;5.10;3.28;;;;;;;;;;10463808;28;20109;-74
2023/07/05 23:08:18;;;;;;;5.40;3.60;;;;;;;;;;10446558;28;20823;-77
2023/07/05 23:13:19;;;;;;;6.00;3.58;;;;;;;;;;10442249;28;20801;-74
2023/07/05 23:18:20;;;;;;;5.10;3.40;;;;;;;;;;10464105;28;20043;-75
2023/07/05 23:23:23;;;;;;;5.80;3.38;;;;;;;;;;10441469;28;20068;-75
2023/07/05 23:28:25;;;;;;;3.83;3.43;;;;;;;;;;10422593;28;20408;-75
2023/07/05 23:33:29;;;;;;;4.38;3.35;;;;;;;;;;10432523;28;20342;-75
2023/07/05 23:38:32;;;;;;;4.20;3.50;;;;;;;;;;10421793;28;20046;-78
2023/07/05 23:43:33;;;;;;;5.60;3.42;;;;;;;;;;10426314;28;20108;-75
2023/07/05 23:48:37;;;;;;;5.20;3.45;;;;;;;;;;10422600;28;20119;-74
2023/07/05 23:53:38;;;;;;;4.88;3.60;;;;;;;;;;10431290;28;20051;-73
2023/07/05 23:58:38;;;;;;;5.32;3.60;;;;;;;;;;10429837;28;20805;-75
